Time;durP1;ratioP1;P1;durP2;ratioP2;P2;SDS_P1;SDS_P2;PMS_P1;PMS_P2;Temp;Humidity;BMP_temperature;BMP_pressure;BME280_temperature;BME280_humidity;BME280_pressure;Samples;Min_cycle;Max_cycle;Signal;HPM_P1;HPM_P2
2022/04/29 00:01:10;;;;;;;7.90;5.50;;;;;;;;;;4985837;28;20446;-91
2022/04/29 00:03:38;;;;;;;6.83;6.13;;;;;;;;;;4987796;28;20435;-94
2022/04/29 00:06:05;;;;;;;9.43;6.27;;;;;;;;;;4996406;28;20554;-94
2022/04/29 00:08:32;;;;;;;6.67;6.03;;;;;;;;;;4988260;28;20962;-93
2022/04/29 00:10:59;;;;;;;7.40;6.00;;;;;;;;;;4975327;28;20986;-94
2022/04/29 00:13:28;;;;;;;6.70;6.00;;;;;;;;;;4976708;28;20454;-95
2022/04/29 00:15:56;;;;;;;8.13;6.00;;;;;;;;;;5018746;28;20470;-94
2022/04/29 00:18:23;;;;;;;8.47;5.60;;;;;;;;;;5036269;28;20943;-95
2022/04/29 00:20:52;;;;;;;12.00;6.47;;;;;;;;;;5035697;28;20462;-93
2022/04/29 00:23:27;;;;;;;6.43;5.63;;;;;;;;;;5037198;28;20448;-93
2022/04/29 00:25:54;;;;;;;7.00;6.30;;;;;;;;;;5037220;28;20446;-93
2022/04/29 00:28:22;;;;;;;9.87;6.67;;;;;;;;;;5038748;28;20448;-92
2022/04/29 00:31:04;;;;;;;8.07;6.70;;;;;;;;;;5040607;28;20479;-94
2022/04/29 00:33:33;;;;;;;9.13;6.03;;;;;;;;;;5043149;28;20458;-94
2022/04/29 00:36:01;;;;;;;6.80;6.10;;;;;;;;;;5058514;28;20550;-94
2022/04/29 00:38:29;;;;;;;10.17;6.10;;;;;;;;;;5052437;28;20546;-93
2022/04/29 00:40:57;;;;;;;9.00;7.20;;;;;;;;;;5042665;28;20463;-94
2022/04/29 00:43:24;;;;;;;8.10;6.60;;;;;;;;;;5041826;28;20455;-94
2022/04/29 00:45:52;;;;;;;12.60;6.10;;;;;;;;;;5039119;28;20461;-91
2022/04/29 00:48:19;;;;;;;6.83;6.13;;;;;;;;;;5044023;28;20451;-92
2022/04/29 00:50:49;;;;;;;6.57;5.97;;;;;;;;;;5046071;28;20485;-93
2022/04/29 00:53:19;;;;;;;6.57;5.87;;;6.00;99.90;;;;;;5037773;28;20462;-92
2022/04/29 00:55:48;;;;;;;7.60;5.83;;;6.00;99.90;;;;;;5049924;28;20472;-94
2022/04/29 00:58:33;;;;;;;6.93;6.20;;;6.00;99.90;;;;;;5053038;28;20452;-94
2022/04/29 01:01:02;;;;;;;6.60;5.90;;;6.00;99.90;;;;;;5050326;28;20459;-94
2022/04/29 01:03:30;;;;;;;7.37;6.43;;;;;;;;;;5049658;28;20499;-92
2022/04/29 01:06:01;;;;;;;6.80;6.10;;;;;;;;;;5049315;28;20566;-92
2022/04/29 01:08:36;;;;;;;7.23;6.57;;;;;;;;;;5047000;28;20566;-94
2022/04/29 01:11:05;;;;;;;7.07;6.23;;;;;;;;;;5039786;28;20474;-93
2022/04/29 01:13:33;;;;;;;6.83;6.13;;;;;;;;;;5047107;28;20582;-93
2022/04/29 01:16:01;;;;;;;7.73;5.53;;;;;;;;;;5046350;28;20519;-94
2022/04/29 01:18:28;;;;;;;6.20;5.60;;;;;;;;;;5043321;28;20524;-94
2022/04/29 01:21:12;;;;;;;6.00;5.50;;;;;;;;;;5041982;28;20554;-94
2022/04/29 01:23:43;;;;;;;9.27;7.00;;;;;;;;;;5041652;28;20477;-94
2022/04/29 01:26:15;;;;;;;5.90;5.40;;;;;;;;;;5040991;28;20444;-94
2022/04/29 01:28:47;;;;;;;6.83;6.13;;;;;;;;;;5041457;28;20935;-93
2022/04/29 01:31:15;;;;;;;7.43;6.47;;;;;;;;;;5038567;28;20487;-95
2022/04/29 01:33:43;;;;;;;10.17;5.90;;;;;;;;;;5040613;28;20455;-93
2022/04/29 01:36:11;;;;;;;7.73;6.70;;;;;;;;;;5036926;28;21028;-95
2022/04/29 01:38:41;;;;;;;7.00;6.40;;;5.60;99.90;;;;;;5039506;28;20502;-93
2022/04/29 01:41:08;;;;;;;5.80;5.30;;;;;;;;;;5031503;28;20452;-94
2022/04/29 01:43:36;;;;;;;6.60;5.80;;;;;;;;;;5039929;28;20550;-93
2022/04/29 01:46:04;;;;;;;7.10;6.40;;;;;;;;;;5039493;28;20523;-93
2022/04/29 01:48:32;;;;;;;6.23;5.63;;;;;;;;;;5037506;28;20515;-94
2022/04/29 01:50:59;;;;;;;6.90;6.20;;;;;;;;;;5038399;28;20808;-94
2022/04/29 01:53:27;;;;;;;7.10;5.90;;;;;;;;;;5038955;28;20969;-94
2022/04/29 01:55:56;;;;;;;6.47;5.83;;;;;;;;;;5040438;28;20550;-94
2022/04/29 01:58:23;;;;;;;7.50;6.40;;;;;;;;;;5039466;28;20542;-93
2022/04/29 02:00:52;;;;;;;6.60;5.90;;;;;;;;;;5039420;28;20467;-94
2022/04/29 02:03:20;;;;;;;8.73;6.07;;;;;;;;;;5039978;28;20863;-94
2022/04/29 02:05:48;;;;;;;6.57;5.93;;;;;;;;;;5038190;28;20570;-94
2022/04/29 02:08:15;;;;;;;6.57;5.97;;;;;;;;;;5040111;28;20505;-93
2022/04/29 02:10:43;;;;;;;6.77;6.03;;;;;;;;;;5039368;28;20627;-94
2022/04/29 02:13:14;;;;;;;7.60;6.50;;;;;;;;;;5039603;28;20491;-93
2022/04/29 02:15:42;;;;;;;7.80;7.03;;;;;;;;;;5039262;28;20471;-93
2022/04/29 02:18:10;;;;;;;7.17;6.47;;;;;;;;;;5039869;28;20448;-94
2022/04/29 02:20:38;;;;;;;12.10;7.23;;;;;;;;;;5038510;28;20963;-94
2022/04/29 02:23:05;;;;;;;7.60;6.80;;;;;;;;;;5039008;28;20443;-94
2022/04/29 02:25:32;;;;;;;7.43;6.73;;;;;;;;;;5034557;28;20462;-94
2022/04/29 02:27:59;;;;;;;9.03;6.30;;;;;;;;;;5038813;28;20464;-93
2022/04/29 02:30:29;;;;;;;6.80;6.10;;;;;;;;;;5038589;28;20479;-93
2022/04/29 02:32:59;;;;;;;10.27;6.00;;;;;;;;;;5038283;28;20978;-93
2022/04/29 02:35:27;;;;;;;8.33;6.70;;;;;;;;;;5037680;28;20526;-93
2022/04/29 02:37:54;;;;;;;11.37;6.73;;;;;;;;;;5036639;28;20824;-94
2022/04/29 02:40:23;;;;;;;7.27;6.57;;;;;;;;;;5038654;28;20539;-94
2022/04/29 02:42:52;;;;;;;6.70;6.00;;;;;;;;;;5038645;28;20489;-94
2022/04/29 02:45:20;;;;;;;7.47;6.20;;;;;;;;;;5038891;28;20447;-93
2022/04/29 02:47:49;;;;;;;7.07;6.37;;;;;;;;;;5039093;28;20505;-94
2022/04/29 02:50:17;;;;;;;12.60;6.87;;;;;;;;;;5039738;28;20454;-94
2022/04/29 02:52:44;;;;;;;6.60;6.00;;;;;;;;;;5039833;28;20484;-93
2022/04/29 02:55:12;;;;;;;8.33;6.40;;;;;;;;;;5037423;28;20443;-94
2022/04/29 02:57:39;;;;;;;7.00;6.30;;;;;;;;;;5041117;28;20509;-94
2022/04/29 03:00:08;;;;;;;7.10;6.37;;;;;;;;;;5044243;28;20448;-93
2022/04/29 03:02:36;;;;;;;7.90;6.33;;;;;;;;;;5049346;28;20557;-93
2022/04/29 03:05:07;;;;;;;8.70;6.57;;;;;;;;;;5054361;28;20459;-95
2022/04/29 03:07:34;;;;;;;6.77;6.07;;;;;;;;;;5049363;28;20566;-94
2022/04/29 03:10:01;;;;;;;7.00;6.30;;;;;;;;;;5042580;28;20480;-94
2022/04/29 03:12:29;;;;;;;7.27;5.80;;;;;;;;;;5052973;28;20483;-93
2022/04/29 03:15:15;;;;;;;7.83;6.77;;;;;;;;;;5053100;28;20513;-93
2022/04/29 03:20:31;;;;;;;6.80;6.10;;;;;;;;;;5038849;28;20482;-94
2022/04/29 03:22:59;;;;;;;7.57;6.77;;;;;;;;;;5037741;28;20519;-94
2022/04/29 03:25:26;;;;;;;10.10;5.87;;;;;;;;;;5037981;28;20458;-93
2022/04/29 03:27:53;;;;;;;7.90;6.20;;;;;;;;;;5037197;28;21117;-94
2022/04/29 03:30:21;;;;;;;8.27;7.20;;;;;;;;;;5037257;28;20547;-92
2022/04/29 03:32:52;;;;;;;7.10;6.40;;;;;;;;;;5037489;28;20555;-93
2022/04/29 03:35:22;;;;;;;6.90;6.00;;;;;;;;;;5036937;28;20443;-93
2022/04/29 03:37:52;;;;;;;9.30;7.00;;;;;;;;;;5036931;28;20505;-93
2022/04/29 03:40:21;;;;;;;6.97;6.30;;;;;;;;;;5036923;28;20450;-94
2022/04/29 03:42:48;;;;;;;7.03;6.27;;;;;;;;;;5037515;28;20460;-94
2022/04/29 03:45:16;;;;;;;7.83;6.30;;;;;;;;;;5037057;28;20451;-94
2022/04/29 03:47:44;;;;;;;5.90;5.27;;;;;;;;;;5034047;28;20451;-93
2022/04/29 03:50:11;;;;;;;7.30;6.40;;;;;;;;;;5036630;28;20539;-93
2022/04/29 03:52:46;;;;;;;6.33;5.70;;;;;;;;;;5036610;28;20487;-94
2022/04/29 03:55:16;;;;;;;9.10;6.63;;;4.60;99.90;;;;;;5036859;28;20451;-93
2022/04/29 03:57:43;;;;;;;8.83;6.03;;;;;;;;;;5036830;28;20569;-94
2022/04/29 04:00:13;;;;;;;7.90;6.60;;;4.60;99.90;;;;;;5037242;28;20816;-94
2022/04/29 04:02:40;;;;;;;6.90;6.20;;;;;;;;;;5033756;28;20442;-92
2022/04/29 04:05:08;;;;;;;8.30;6.90;;;;;;;;;;5038108;28;20439;-94
2022/04/29 04:07:35;;;;;;;7.07;6.37;;;;;;;;;;4996754;28;20879;-93
2022/04/29 04:10:04;;;;;;;7.73;6.87;;;;;;;;;;4999853;28;20532;-94
2022/04/29 04:12:45;;;;;;;7.67;6.37;;;4.70;99.90;;;;;;5000717;28;20572;-93
2022/04/29 04:15:13;;;;;;;7.63;6.70;;;;;;;;;;5000978;28;20484;-93
2022/04/29 04:17:40;;;;;;;6.73;6.03;;;;;;;;;;4997981;28;20446;-94
2022/04/29 04:20:09;;;;;;;8.70;6.23;;;;;;;;;;4998504;28;20462;-93
2022/04/29 04:22:36;;;;;;;6.50;5.63;;;;;;;;;;5002020;28;20960;-94
2022/04/29 04:25:04;;;;;;;8.50;6.40;;;;;;;;;;5009518;28;20861;-93
2022/04/29 04:27:32;;;;;;;9.90;7.70;;;;;;;;;;5044022;28;20459;-93
2022/04/29 04:30:02;;;;;;;8.73;6.60;;;;;;;;;;5044059;28;20443;-93
2022/04/29 04:32:30;;;;;;;9.00;6.60;;;;;;;;;;5040651;28;20475;-93
2022/04/29 04:35:00;;;;;;;9.90;7.50;;;;;;;;;;5038509;28;20463;-94
2022/04/29 04:37:28;;;;;;;12.50;9.03;;;5.10;99.90;;;;;;5041709;28;20927;-95
2022/04/29 04:39:58;;;;;;;22.47;16.00;;;5.20;99.90;;;;;;5038406;28;20455;-94
2022/04/29 04:42:25;;;;;;;16.77;12.87;;;;;;;;;;5036617;28;20474;-93
2022/04/29 04:44:53;;;;;;;15.97;12.83;;;;;;;;;;5041716;28;20479;-92
2022/04/29 04:47:23;;;;;;;14.07;11.37;;;;;;;;;;5040937;28;20462;-94
2022/04/29 04:49:50;;;;;;;11.20;9.30;;;;;;;;;;5040586;28;20470;-95
2022/04/29 04:52:17;;;;;;;11.23;8.83;;;;;;;;;;5041568;28;20474;-93
2022/04/29 04:54:46;;;;;;;11.00;8.10;;;;;;;;;;5041554;28;20458;-93
2022/04/29 04:57:13;;;;;;;9.40;8.10;;;;;;;;;;5039932;28;20644;-93
2022/04/29 04:59:40;;;;;;;8.30;7.47;;;;;;;;;;5043009;28;20456;-94
2022/04/29 05:02:08;;;;;;;7.90;7.17;;;;;;;;;;5043866;28;20534;-94
2022/04/29 05:04:37;;;;;;;8.67;7.30;;;;;;;;;;5040323;28;20447;-94
2022/04/29 05:07:05;;;;;;;7.83;7.07;;;;;;;;;;5037964;28;21016;-94
2022/04/29 05:09:33;;;;;;;8.77;7.77;;;;;;;;;;5039760;28;20440;-94
2022/04/29 05:12:00;;;;;;;8.50;7.60;;;;;;;;;;5042235;28;20458;-93
2022/04/29 05:14:28;;;;;;;8.30;7.40;;;;;;;;;;5039841;28;20447;-93
2022/04/29 05:16:55;;;;;;;18.03;8.60;;;;;;;;;;5041929;28;20465;-92
2022/04/29 05:19:23;;;;;;;8.23;7.37;;;;;;;;;;5040377;28;20543;-94
2022/04/29 05:21:52;;;;;;;8.97;8.07;;;;;;;;;;5018094;28;20457;-94
2022/04/29 05:24:19;;;;;;;10.10;9.10;;;;;;;;;;5020056;28;20913;-93
2022/04/29 05:26:46;;;;;;;15.87;10.07;;;;;;;;;;5020854;28;20524;-93
2022/04/29 05:29:14;;;;;;;12.93;9.93;;;;;;;;;;5017632;28;20471;-93
2022/04/29 05:31:49;;;;;;;11.70;8.87;;;8.00;99.90;;;;;;5021226;28;20472;-93
2022/04/29 05:34:16;;;;;;;9.23;8.17;;;;;;;;;;5021363;28;20490;-92
2022/04/29 05:36:44;;;;;;;9.13;8.30;;;;;;;;;;5018211;28;20451;-93
2022/04/29 05:42:18;;;;;;;11.03;8.70;;;;;;;;;;5042057;28;20513;-94
2022/04/29 05:44:46;;;;;;;9.80;8.87;;;;;;;;;;5045536;28;20482;-94
2022/04/29 05:47:13;;;;;;;8.73;7.93;;;;;;;;;;5059618;28;20515;-93
2022/04/29 05:49:40;;;;;;;11.17;8.93;;;;;;;;;;5050881;28;20463;-93
2022/04/29 05:52:08;;;;;;;11.23;9.63;;;;;;;;;;5043360;28;20456;-93
2022/04/29 05:54:37;;;;;;;11.60;10.13;;;;;;;;;;5037277;28;20470;-93
2022/04/29 05:57:07;;;;;;;12.70;10.43;;;;;;;;;;5040747;28;20448;-91
2022/04/29 05:59:34;;;;;;;9.73;8.83;;;;;;;;;;5042991;28;20451;-92
2022/04/29 06:02:01;;;;;;;11.33;10.23;;;;;;;;;;5049773;28;20451;-90
2022/04/29 06:04:28;;;;;;;12.73;11.53;;;;;;;;;;5038306;28;20957;-93
2022/04/29 06:06:56;;;;;;;10.53;9.53;;;;;;;;;;5035984;28;20483;-93
2022/04/29 06:09:25;;;;;;;10.90;9.00;;;;;;;;;;5037754;28;20456;-94
2022/04/29 06:11:53;;;;;;;9.60;8.70;;;;;;;;;;5037808;28;20479;-93
2022/04/29 06:14:21;;;;;;;9.70;8.63;;;;;;;;;;5035794;28;20494;-91
2022/04/29 06:16:48;;;;;;;13.83;9.50;;;;;;;;;;5036125;28;20440;-93
2022/04/29 06:19:15;;;;;;;11.30;8.20;;;;;;;;;;5036782;28;20459;-91
2022/04/29 06:21:42;;;;;;;10.67;9.67;;;;;;;;;;5034137;28;20927;-92
2022/04/29 06:24:09;;;;;;;9.47;8.53;;;;;;;;;;5035808;28;20458;-92
2022/04/29 06:26:37;;;;;;;10.13;9.13;;;;;;;;;;5036368;28;20443;-95
2022/04/29 06:29:05;;;;;;;13.37;9.43;;;13.00;99.90;;;;;;5033990;28;20463;-91
2022/04/29 06:31:32;;;;;;;13.80;8.40;;;;;;;;;;5031320;28;20897;-92
2022/04/29 06:33:59;;;;;;;10.17;9.17;;;;;;;;;;5035835;28;20479;-94
2022/04/29 06:36:26;;;;;;;12.77;9.00;;;;;;;;;;5034052;28;20459;-89
2022/04/29 06:38:54;;;;;;;9.30;8.40;;;;;;;;;;5032192;28;20530;-91
2022/04/29 06:41:21;;;;;;;12.73;10.40;;;;;;;;;;5034857;28;20447;-92
2022/04/29 06:43:48;;;;;;;10.17;9.00;;;;;;;;;;5034852;28;20452;-92
2022/04/29 06:46:17;;;;;;;13.67;10.30;;;13.80;97.20;;;;;;5036224;28;20452;-93
2022/04/29 06:48:45;;;;;;;13.60;9.20;;;;;;;;;;5034258;28;20459;-91
2022/04/29 06:51:12;;;;;;;10.30;8.67;;;;;;;;;;5035284;28;20436;-94
2022/04/29 06:53:41;;;;;;;9.53;8.73;;;;;;;;;;5036285;28;20479;-94
2022/04/29 06:56:08;;;;;;;10.57;9.20;;;;;;;;;;5037790;28;20451;-93
2022/04/29 06:58:35;;;;;;;9.70;8.90;;;;;;;;;;5036972;28;20451;-92
2022/04/29 07:01:02;;;;;;;10.10;9.20;;;;;;;;;;5035902;28;20459;-92
2022/04/29 07:03:30;;;;;;;10.87;9.57;;;15.40;92.70;;;;;;5036938;28;20448;-93
2022/04/29 07:06:00;;;;;;;9.43;8.60;;;;;;;;;;5031799;28;20487;-92
2022/04/29 07:08:28;;;;;;;10.30;9.30;;;;;;;;;;5034981;28;20468;-94
2022/04/29 07:10:55;;;;;;;11.77;9.73;;;;;;;;;;5032389;28;20432;-92
2022/04/29 07:13:23;;;;;;;9.70;8.70;;;;;;;;;;5034463;28;20495;-94
2022/04/29 07:15:50;;;;;;;10.33;9.10;;;;;;;;;;5036524;28;20451;-92
2022/04/29 07:18:18;;;;;;;11.93;9.30;;;;;;;;;;5037006;28;20455;-93
2022/04/29 07:20:47;;;;;;;10.00;8.37;;;;;;;;;;5037078;28;20958;-93
2022/04/29 07:23:14;;;;;;;10.37;9.10;;;;;;;;;;5037957;28;20499;-93
2022/04/29 07:25:42;;;;;;;9.10;8.20;;;;;;;;;;5038500;28;20444;-93
2022/04/29 07:28:09;;;;;;;9.30;8.40;;;;;;;;;;5036858;28;20513;-93
2022/04/29 07:30:36;;;;;;;9.67;8.70;;;;;;;;;;5036645;28;20940;-92
2022/04/29 07:33:03;;;;;;;10.10;9.03;;;;;;;;;;5037252;28;20562;-93
2022/04/29 07:43:46;;;;;;;11.90;8.30;;;;;;;;;;5039951;28;20426;-93
2022/04/29 07:46:13;;;;;;;9.90;8.57;;;;;;;;;;5046823;28;20908;-92
2022/04/29 07:48:43;;;;;;;9.07;8.17;;;;;;;;;;5045480;28;20438;-92
2022/04/29 07:51:11;;;;;;;12.50;8.53;;;;;;;;;;5043263;28;20475;-93
2022/04/29 07:53:40;;;;;;;13.83;10.10;;;17.00;85.00;;;;;;5054161;28;21024;-94
2022/04/29 07:56:07;;;;;;;9.67;8.67;;;;;;;;;;5049796;28;20490;-94
2022/04/29 07:58:38;;;;;;;8.73;7.83;;;;;;;;;;5050567;28;20464;-91
2022/04/29 08:03:48;;;;;;;11.17;8.10;;;;;;;;;;5051041;28;20462;-92
2022/04/29 08:06:16;;;;;;;7.40;6.40;;;;;;;;;;5049214;28;20471;-93
2022/04/29 08:08:45;;;;;;;9.50;7.67;;;;;;;;;;5042441;28;20546;-90
2022/04/29 08:11:12;;;;;;;10.50;8.60;;;;;;;;;;5044668;28;20435;-92
2022/04/29 08:13:39;;;;;;;9.90;7.97;;;;;;;;;;5044520;28;20514;-94
2022/04/29 08:16:07;;;;;;;12.03;7.93;;;;;;;;;;5040903;28;20447;-89
2022/04/29 08:18:35;;;;;;;8.17;7.07;;;;;;;;;;5045750;28;20518;-92
2022/04/29 08:21:03;;;;;;;8.63;7.57;;;;;;;;;;5058244;28;20427;-92
2022/04/29 08:23:31;;;;;;;8.00;7.10;;;;;;;;;;5052984;28;20462;-92
2022/04/29 08:28:42;;;;;;;7.67;6.87;;;;;;;;;;5048577;28;20446;-92
2022/04/29 08:31:15;;;;;;;9.10;7.80;;;18.50;78.50;;;;;;5050013;28;20461;-93
2022/04/29 08:33:42;;;;;;;11.50;7.70;;;;;;;;;;5036691;28;20479;-89
2022/04/29 08:36:09;;;;;;;14.03;7.63;;;;;;;;;;5042919;28;20475;-91
2022/04/29 08:38:37;;;;;;;9.30;7.27;;;;;;;;;;5043406;28;20470;-91
2022/04/29 08:41:07;;;;;;;9.03;8.13;;;19.00;71.10;;;;;;5043647;28;20483;-90
2022/04/29 08:43:34;;;;;;;7.70;6.40;;;;;;;;;;5044210;28;20459;-91
2022/04/29 08:46:02;;;;;;;7.60;6.87;;;20.40;93.20;;;;;;5043885;28;20454;-91
2022/04/29 08:48:30;;;;;;;9.43;8.00;;;20.20;70.90;;;;;;5038586;28;20451;-90
2022/04/29 08:50:58;;;;;;;9.50;8.20;;;20.50;91.00;;;;;;5039406;28;20447;-92
2022/04/29 08:53:26;;;;;;;8.10;6.80;;;;;;;;;;5042241;28;20495;-92
2022/04/29 08:58:39;;;;;;;7.50;6.70;;;20.50;84.20;;;;;;5048543;28;20454;-90
2022/04/29 09:01:09;;;;;;;8.20;6.40;;;20.60;61.50;;;;;;5041075;28;20440;-92
2022/04/29 09:03:37;;;;;;;7.00;6.00;;;19.60;93.80;;;;;;5038499;28;20489;-91
2022/04/29 09:06:05;;;;;;;6.80;6.00;;;20.40;93.50;;;;;;5040618;28;20486;-90
2022/04/29 09:08:40;;;;;;;8.63;5.90;;;21.10;60.30;;;;;;5039231;28;20451;-92
2022/04/29 09:11:07;;;;;;;6.87;6.00;;;;;;;;;;5038802;28;20443;-91
2022/04/29 09:13:37;;;;;;;5.93;5.43;;;20.80;91.40;;;;;;5038612;28;20486;-92
2022/04/29 09:16:10;;;;;;;5.07;4.57;;;19.20;91.60;;;;;;5039269;28;20453;-89
2022/04/29 09:18:39;;;;;;;9.30;6.10;;;19.30;63.20;;;;;;5037936;28;20475;-92
2022/04/29 09:21:08;;;;;;;5.77;5.17;;;20.00;91.90;;;;;;5019590;28;20451;-92
2022/04/29 09:23:37;;;;;;;5.83;4.80;;;19.60;80.40;;;;;;5038000;28;20443;-92
2022/04/29 09:26:05;;;;;;;6.30;5.70;;;;;;;;;;5034324;28;20525;-91
2022/04/29 09:28:33;;;;;;;6.60;5.60;;;19.60;91.30;;;;;;5037898;28;20483;-91
2022/04/29 09:31:01;;;;;;;6.83;6.13;;;19.50;61.10;;;;;;5033676;28;20452;-92
2022/04/29 09:33:30;;;;;;;6.80;6.20;;;19.70;62.00;;;;;;5034917;28;20494;-90
2022/04/29 09:35:58;;;;;;;13.40;5.23;;;;;;;;;;5025436;28;20443;-90
2022/04/29 09:41:09;;;;;;;5.40;4.90;;;;;;;;;;5057187;28;20435;-90
2022/04/29 09:43:38;;;;;;;5.93;5.43;;;21.10;90.30;;;;;;5056728;28;20443;-91
2022/04/29 09:46:17;;;;;;;6.37;5.63;;;20.60;81.60;;;;;;5056981;28;20450;-94
2022/04/29 09:49:02;;;;;;;6.37;5.77;;;20.00;91.10;;;;;;5057366;28;20519;-92
2022/04/29 09:51:56;;;;;;;6.23;5.63;;;19.80;92.70;;;;;;5055855;28;20482;-90
2022/04/29 09:54:25;;;;;;;7.27;5.37;;;19.40;91.80;;;;;;5053507;28;20479;-90
2022/04/29 09:57:07;;;;;;;6.50;5.70;;;19.20;83.60;;;;;;5056529;28;20442;-88
2022/04/29 09:59:35;;;;;;;9.87;5.83;;;19.50;91.00;;;;;;5056688;28;20450;-88
2022/04/29 10:02:03;;;;;;;5.30;4.80;;;19.60;88.90;;;;;;5054331;28;20820;-92
2022/04/29 10:04:43;;;;;;;6.13;5.53;;;20.40;92.10;;;;;;5041960;28;20873;-93
2022/04/29 10:07:11;;;;;;;5.33;4.83;;;19.30;89.00;;;;;;5058412;28;20478;-90
2022/04/29 10:09:41;;;;;;;6.60;5.90;;;19.60;61.40;;;;;;5041250;28;20836;-91
2022/04/29 10:12:13;;;;;;;6.03;5.37;;;19.50;62.40;;;;;;5034118;28;20466;-94
2022/04/29 10:14:46;;;;;;;5.93;5.43;;;19.50;59.20;;;;;;5037322;28;20927;-94
2022/04/29 10:22:53;;;;;;;5.53;5.00;;;20.20;85.10;;;;;;5028532;28;20586;-90
2022/04/29 10:25:22;;;;;;;5.53;5.00;;;17.80;59.60;;;;;;5036475;28;21107;-88
2022/04/29 10:27:50;;;;;;;6.20;5.33;;;19.70;90.30;;;;;;5034833;28;20451;-90
2022/04/29 10:30:28;;;;;;;10.00;4.90;;;19.60;65.90;;;;;;5032617;28;20471;-91
2022/04/29 10:33:03;;;;;;;4.57;4.17;;;19.80;90.80;;;;;;5022017;28;20455;-91
2022/04/29 10:36:06;;;;;;;3.83;3.53;;;20.20;58.70;;;;;;5017472;28;20491;-90
2022/04/29 10:38:35;;;;;;;3.90;3.60;;;19.70;58.50;;;;;;5017301;28;20440;-93
2022/04/29 10:41:19;;;;;;;5.20;4.53;;;19.50;90.20;;;;;;5022509;28;20448;-94
2022/04/29 10:43:48;;;;;;;4.93;4.10;;;19.80;80.80;;;;;;5015176;28;20475;-92
2022/04/29 10:46:22;;;;;;;4.33;3.80;;;18.50;90.10;;;;;;5023304;28;20433;-92
2022/04/29 10:48:50;;;;;;;5.03;4.60;;;;;;;;;;5025452;28;20448;-94
2022/04/29 10:51:42;;;;;;;5.23;4.53;;;20.10;79.90;;;;;;5025333;28;20491;-90
2022/04/29 10:54:09;;;;;;;5.37;4.87;;;;;;;;;;5039388;28;20470;-91
2022/04/29 10:56:37;;;;;;;4.70;3.93;;;20.60;59.50;;;;;;5044915;28;20947;-88
2022/04/29 10:59:22;;;;;;;5.20;4.70;;;21.00;59.70;;;;;;5036946;28;20443;-91
2022/04/29 11:01:51;;;;;;;5.40;4.33;;;21.30;54.70;;;;;;5036760;28;20466;-90
2022/04/29 11:04:47;;;;;;;4.80;3.77;;;21.20;55.00;;;;;;5036750;28;20498;-89
2022/04/29 11:07:43;;;;;;;4.50;4.10;;;20.50;54.30;;;;;;5035440;28;20483;-92
2022/04/29 11:10:13;;;;;;;4.90;4.13;;;19.90;56.10;;;;;;5042180;28;20471;-92
2022/04/29 11:12:42;;;;;;;4.13;3.80;;;19.90;56.10;;;;;;5033381;28;20435;-92
2022/04/29 11:15:14;;;;;;;4.60;3.80;;;20.20;54.80;;;;;;5039206;28;20483;-92
2022/04/29 11:17:42;;;;;;;4.73;3.93;;;20.00;55.50;;;;;;5036284;28;20487;-91
2022/04/29 11:20:20;;;;;;;4.70;4.30;;;19.80;56.20;;;;;;5040718;28;20467;-93
2022/04/29 11:25:57;;;;;;;5.23;3.90;;;20.30;55.00;;;;;;5043825;28;20438;-92
2022/04/29 11:28:25;;;;;;;4.67;4.27;;;19.80;55.30;;;;;;5037949;28;20487;-92
2022/04/29 11:31:00;;;;;;;8.10;4.13;;;19.50;56.60;;;;;;5039257;28;20772;-92
2022/04/29 11:33:27;;;;;;;4.60;4.20;;;;;;;;;;5034047;28;20514;-94
2022/04/29 11:36:03;;;;;;;5.93;4.43;;;19.30;56.60;;;;;;5040064;28;20491;-90
2022/04/29 11:38:33;;;;;;;5.13;3.90;;;19.80;56.60;;;;;;5047796;22;20484;-94
2022/04/29 11:41:02;;;;;;;5.37;4.90;;;20.00;79.20;;;;;;5020660;28;20452;-91
2022/04/29 11:43:30;;;;;;;5.20;4.70;;;;;;;;;;5019561;28;20456;-93
2022/04/29 11:46:05;;;;;;;4.53;4.13;;;19.70;78.00;;;;;;5015674;28;20503;-92
2022/04/29 11:48:32;;;;;;;4.73;3.97;;;;;;;;;;5024886;28;20483;-90
2022/04/29 11:50:59;;;;;;;4.50;4.00;;;;;;;;;;5027745;28;20448;-91
2022/04/29 11:53:26;;;;;;;5.30;4.80;;;;;;;;;;5024472;28;20784;-94
2022/04/29 11:55:54;;;;;;;9.10;4.57;;;19.30;78.70;;;;;;5017995;28;21159;-93
2022/04/29 11:58:21;;;;;;;4.20;3.80;;;;;;;;;;5013375;28;20486;-91
2022/04/29 12:00:54;;;;;;;4.77;4.37;;;19.30;90.80;;;;;;5019986;28;20455;-95
2022/04/29 12:03:21;;;;;;;6.07;5.00;;;;;;;;;;5015404;28;20459;-89
2022/04/29 12:05:48;;;;;;;7.03;5.30;;;19.50;90.50;;;;;;5012434;28;20456;-87
2022/04/29 12:08:17;;;;;;;5.90;5.20;;;19.10;56.90;;;;;;5011698;28;20452;-89
2022/04/29 12:10:45;;;;;;;5.33;4.83;;;19.30;56.20;;;;;;5016809;28;20460;-92
2022/04/29 12:13:13;;;;;;;4.97;4.57;;;19.30;56.60;;;;;;5015271;28;20456;-90
2022/04/29 12:15:43;;;;;;;5.17;4.77;;;19.10;56.40;;;;;;5015849;28;20859;-91
2022/04/29 12:18:14;;;;;;;4.97;4.30;;;19.50;56.70;;;;;;5018728;28;20448;-91
2022/04/29 12:20:42;;;;;;;9.70;5.60;;;;;;;;;;5017621;28;20444;-88
2022/04/29 12:23:14;;;;;;;4.97;4.50;;;18.80;82.00;;;;;;5018365;28;20458;-89
2022/04/29 12:25:56;;;;;;;5.47;4.30;;;19.10;57.70;;;;;;5020335;28;20466;-90
2022/04/29 12:28:27;;;;;;;5.27;4.67;;;19.30;55.70;;;;;;5015965;28;20460;-87
2022/04/29 12:36:45;;;;;;;6.00;4.20;;;21.10;55.10;;;;;;5028427;23;20435;-90
2022/04/29 12:39:12;;;;;;;5.20;4.77;;;;;;;;;;5038253;28;20455;-91
2022/04/29 12:41:39;;;;;;;5.63;4.87;;;;;;;;;;5038200;28;20458;-90
2022/04/29 12:45:03;;;;;;;5.20;4.70;;;20.20;58.00;;;;;;5039861;28;20477;-88
2022/04/29 12:47:01;;;;;;;5.57;5.10;;;;;;;;;;5037994;28;20486;-93
2022/04/29 12:49:28;;;;;;;5.30;4.90;;;;;;;;;;5038752;28;20450;-90
2022/04/29 12:52:00;;;;;;;5.50;4.87;;;20.50;55.00;;;;;;5038256;28;20439;-94
2022/04/29 12:54:28;;;;;;;6.27;5.00;;;21.10;53.40;;;;;;5033518;28;20487;-89
2022/04/29 12:56:55;;;;;;;5.77;5.17;;;;;;;;;;5036903;28;20807;-93
2022/04/29 12:59:25;;;;;;;5.33;4.80;;;22.00;55.00;;;;;;5032218;28;20508;-89
2022/04/29 13:01:53;;;;;;;6.87;5.80;;;;;;;;;;5036055;28;20452;-91
2022/04/29 13:04:20;;;;;;;5.60;5.10;;;;;;;;;;5036650;28;20455;-90
2022/04/29 13:06:48;;;;;;;7.30;5.00;;;;;;;;;;5035686;28;20459;-91
2022/04/29 13:09:16;;;;;;;6.97;5.30;;;;;;;;;;5037237;28;20894;-91
2022/04/29 13:11:45;;;;;;;5.60;5.00;;;21.70;78.60;;;;;;5038080;28;20530;-88
2022/04/29 13:14:14;;;;;;;6.00;5.40;;;21.50;55.90;;;;;;5034146;28;20455;-88
2022/04/29 13:16:43;;;;;;;6.10;5.60;;;21.10;86.90;;;;;;5034957;28;20469;-91
2022/04/29 13:19:10;;;;;;;7.03;6.10;;;;;;;;;;5040012;28;20466;-94
2022/04/29 13:21:37;;;;;;;5.57;5.07;;;;;;;;;;5037186;28;20523;-92
2022/04/29 13:24:05;;;;;;;6.13;5.47;;;21.00;84.50;;;;;;5037934;28;20931;-90
2022/04/29 13:26:33;;;;;;;6.43;5.93;;;;;;;;;;5036980;28;20444;-91
2022/04/29 13:29:00;;;;;;;6.40;5.80;;;;;;;;;;5030618;28;20451;-86
2022/04/29 13:31:27;;;;;;;7.10;6.50;;;;;;;;;;5036096;28;20820;-89
2022/04/29 13:33:55;;;;;;;7.00;6.40;;;20.70;53.60;;;;;;5037182;28;20443;-95
2022/04/29 13:36:22;;;;;;;6.90;6.30;;;;;;;;;;5039881;28;20494;-89
2022/04/29 13:38:50;;;;;;;7.20;5.40;;;;;;;;;;5041798;28;20953;-89
2022/04/29 13:41:17;;;;;;;8.80;5.10;;;;;;;;;;5047962;28;20475;-88
2022/04/29 13:43:46;;;;;;;5.97;5.37;;;;;;;;;;5048126;28;20424;-93
2022/04/29 13:46:15;;;;;;;6.53;5.00;;;;;;;;;;5050193;23;20602;-91
2022/04/29 13:48:42;;;;;;;5.33;4.93;;;;;;;;;;5022100;28;20452;-95
2022/04/29 13:51:10;;;;;;;5.53;5.03;;;19.80;51.80;;;;;;5016937;28;20452;-92
2022/04/29 13:53:38;;;;;;;5.23;4.83;;;;;;;;;;5018420;28;20441;-92
2022/04/29 13:56:05;;;;;;;5.93;5.27;;;19.50;80.90;;;;;;5015892;28;20496;-94
2022/04/29 13:58:33;;;;;;;6.63;6.03;;;;;;;;;;5020636;28;20484;-93
2022/04/29 14:01:00;;;;;;;7.80;6.23;;;;;;;;;;5020959;28;20453;-94
2022/04/29 14:03:27;;;;;;;7.17;6.57;;;;;;;;;;5016956;28;20448;-93
2022/04/29 14:05:54;;;;;;;6.37;5.83;;;;;;;;;;5023151;28;20444;-92
2022/04/29 14:08:23;;;;;;;11.60;7.10;;;19.90;55.70;;;;;;5019879;28;20436;-94
2022/04/29 14:10:50;;;;;;;7.17;6.40;;;;;;;;;;5021448;28;20436;-94
2022/04/29 14:13:18;;;;;;;7.40;6.70;;;;;;;;;;5018968;28;20455;-91
2022/04/29 14:15:45;;;;;;;7.10;6.40;;;;;;;;;;5021339;28;20492;-95
2022/04/29 14:18:12;;;;;;;6.30;5.80;;;;;;;;;;5019044;28;20463;-93
2022/04/29 14:20:40;;;;;;;6.97;6.27;;;;;;;;;;5023899;28;20475;-90
2022/04/29 14:23:07;;;;;;;5.30;4.90;;;;;;;;;;5020621;28;20444;-92
2022/04/29 14:25:35;;;;;;;7.00;6.10;;;20.40;53.60;;;;;;5024535;28;20432;-93
2022/04/29 14:28:03;;;;;;;6.03;5.53;;;;;;;;;;5019985;28;20448;-93
2022/04/29 14:30:30;;;;;;;5.80;5.30;;;;;;;;;;5024436;28;20440;-91
2022/04/29 14:32:57;;;;;;;8.00;5.80;;;;;;;;;;5029365;28;20458;-93
2022/04/29 14:35:24;;;;;;;6.57;5.83;;;20.20;54.90;;;;;;5023082;28;20503;-90
2022/04/29 14:37:52;;;;;;;6.77;6.13;;;;;;;;;;5018088;28;20444;-87
2022/04/29 14:40:19;;;;;;;5.90;5.40;;;;;;;;;;5025863;28;20452;-93
2022/04/29 14:42:47;;;;;;;6.10;5.53;;;19.50;85.60;;;;;;4992363;28;20453;-88
2022/04/29 14:45:15;;;;;;;7.50;6.50;;;;;;;;;;4995395;28;20457;-91
2022/04/29 14:47:42;;;;;;;6.57;5.60;;;;;;;;;;4991394;28;20499;-88
2022/04/29 14:50:11;;;;;;;9.17;6.03;;;20.20;70.40;;;;;;4996029;28;20449;-87
2022/04/29 14:52:38;;;;;;;6.50;5.90;;;;;;;;;;4996510;28;20453;-85